Time;durP1;ratioP1;P1;durP2;ratioP2;P2;SDS_P1;SDS_P2;PMS_P1;PMS_P2;Temp;Humidity;BMP_temperature;BMP_pressure;BME280_temperature;BME280_humidity;BME280_pressure;Samples;Min_cycle;Max_cycle;Signal;HPM_P1;HPM_P2
2022/06/02 00:01:04;;;;;;;;;;;8.70;99.90;;;;;;5033428;28;19948;-75
2022/06/02 00:03:56;;;;;;;;;;;8.70;99.90;;;;;;5031766;28;19972;-76
2022/06/02 00:06:22;;;;;;;;;;;8.70;99.90;;;;;;5032148;28;20311;-75
2022/06/02 00:08:51;;;;;;;;;;;8.70;99.90;;;;;;5032164;28;20285;-75
2022/06/02 00:11:19;;;;;;;;;;;8.70;99.90;;;;;;5033263;28;19921;-75
2022/06/02 00:13:50;;;;;;;;;;;8.80;99.90;;;;;;5032928;28;19929;-75
2022/06/02 00:16:17;;;;;;;;;;;8.80;99.90;;;;;;5033161;28;19928;-76
2022/06/02 00:18:53;;;;;;;;;;;8.90;99.90;;;;;;5031700;28;19987;-76
2022/06/02 00:21:33;;;;;;;;;;;8.90;99.90;;;;;;5033214;28;19961;-76
2022/06/02 00:24:02;;;;;;;;;;;8.90;99.90;;;;;;5033261;28;19921;-75
2022/06/02 00:26:51;;;;;;;;;;;8.90;99.90;;;;;;5032008;28;20011;-76
2022/06/02 00:29:19;;;;;;;;;;;8.90;99.90;;;;;;5032576;28;19928;-76
2022/06/02 00:31:48;;;;;;;;;;;8.80;99.90;;;;;;5031742;28;19956;-76
2022/06/02 00:34:13;;;;;;;;;;;8.80;99.90;;;;;;5036017;28;19921;-76
2022/06/02 00:37:05;;;;;;;;;;;8.80;99.90;;;;;;5036742;28;19920;-76
2022/06/02 00:39:31;;;;;;;;;;;8.80;99.90;;;;;;5028588;28;19925;-75
2022/06/02 00:42:06;;;;;;;;;;;8.70;99.90;;;;;;5037245;28;19921;-75
2022/06/02 00:44:31;;;;;;;;;;;8.70;99.90;;;;;;5036091;28;19971;-76
2022/06/02 00:47:02;;;;;;;;;;;8.70;99.90;;;;;;5036797;28;19921;-75
2022/06/02 00:49:46;;;;;;;;;;;8.70;99.90;;;;;;5036898;28;19920;-76
2022/06/02 00:52:11;;;;;;;;;;;8.70;99.90;;;;;;5036899;28;19921;-76
2022/06/02 00:57:52;;;;;;;;;;;8.60;99.90;;;;;;5035618;28;19928;-76
2022/06/02 01:00:22;;;;;;;;;;;8.60;99.90;;;;;;5035747;28;19925;-76
2022/06/02 01:02:48;;;;;;;;;;;8.50;99.90;;;;;;5036231;28;19964;-76
2022/06/02 01:05:14;;;;;;;;;;;8.50;99.90;;;;;;5036737;28;19928;-75
2022/06/02 01:07:50;;;;;;;;;;;8.50;99.90;;;;;;5036610;28;19928;-77
2022/06/02 01:10:18;;;;;;;;;;;8.50;99.90;;;;;;5036660;28;19921;-76
2022/06/02 01:13:06;;;;;;;;;;;8.50;99.90;;;;;;5034896;28;19925;-75
2022/06/02 01:15:58;;;;;;;;;;;8.40;99.90;;;;;;5035474;28;19921;-76
2022/06/02 01:18:25;;;;;;;;;;;8.40;99.90;;;;;;5028049;28;19925;-75
2022/06/02 01:20:53;;;;;;;;;;;8.40;99.90;;;;;;5035075;28;20430;-76
2022/06/02 01:23:37;;;;;;;;;;;8.40;99.90;;;;;;5037916;28;19921;-75
2022/06/02 01:26:12;;;;;;;;;;;8.30;99.90;;;;;;5020454;28;20387;-76
2022/06/02 01:28:41;;;;;;;;;;;8.20;99.90;;;;;;5040343;28;20389;-76
2022/06/02 01:31:25;;;;;;;;;;;8.30;99.90;;;;;;5058239;28;19959;-74
2022/06/02 01:33:54;;;;;;;;;;;8.20;99.90;;;;;;5057027;28;19921;-71
2022/06/02 01:36:25;;;;;;;;;;;8.20;99.90;;;;;;5057528;28;19920;-73
2022/06/02 01:39:09;;;;;;;;;;;8.20;99.90;;;;;;5041900;28;20348;-76
2022/06/02 01:42:01;;;;;;;;;;;8.10;99.90;;;;;;5035995;28;20011;-76
2022/06/02 01:44:56;;;;;;;;;;;8.10;99.90;;;;;;5026402;28;19921;-75
2022/06/02 01:47:27;;;;;;;;;;;8.10;99.90;;;;;;5027404;28;20361;-75
2022/06/02 01:50:02;;;;;;;;;;;8.10;99.90;;;;;;5018029;28;19931;-75
2022/06/02 01:52:28;;;;;;;;;;;8.10;99.90;;;;;;5034536;28;20416;-76
2022/06/02 01:55:06;;;;;;;;;;;8.10;99.90;;;;;;5035414;28;20008;-76
2022/06/02 01:57:31;;;;;;;;;;;8.10;99.90;;;;;;5035281;28;20415;-77
2022/06/02 02:00:13;;;;;;;;;;;8.10;99.90;;;;;;5035213;28;19964;-76
2022/06/02 02:02:42;;;;;;;;;;;8.10;99.90;;;;;;5034240;28;19921;-76
2022/06/02 02:05:16;;;;;;;;;;;8.10;99.90;;;;;;5033919;28;19924;-75
2022/06/02 02:07:48;;;;;;;;;;;8.10;99.90;;;;;;5034251;28;19921;-75
2022/06/02 02:10:14;;;;;;;;;;;8.10;99.90;;;;;;5035389;28;20032;-75
2022/06/02 02:12:51;;;;;;;;;;;8.10;99.90;;;;;;5035255;28;20007;-75
2022/06/02 02:15:32;;;;;;;;;;;8.10;99.90;;;;;;5035304;28;19952;-75
2022/06/02 02:18:07;;;;;;;;;;;8.00;99.90;;;;;;5033602;28;19924;-75
2022/06/02 02:20:36;;;;;;;;;;;8.10;99.90;;;;;;5033881;28;19932;-75
2022/06/02 02:23:11;;;;;;;;;;;8.10;99.90;;;;;;5034879;28;19921;-76
2022/06/02 02:25:53;;;;;;;;;;;8.10;99.90;;;;;;5033672;28;20408;-75
2022/06/02 02:28:19;;;;;;;;;;;8.00;99.90;;;;;;5033739;28;19928;-75
2022/06/02 02:30:44;;;;;;;;;;;7.90;99.90;;;;;;5034577;28;19921;-75
2022/06/02 02:33:20;;;;;;;;;;;8.00;99.90;;;;;;5034841;28;19927;-75
2022/06/02 02:35:49;;;;;;;;;;;8.00;99.90;;;;;;5033728;28;20003;-75
2022/06/02 02:38:20;;;;;;;;;;;7.90;99.90;;;;;;5033634;28;19921;-75
2022/06/02 02:40:46;;;;;;;;;;;7.90;99.90;;;;;;5033529;28;19968;-75
2022/06/02 02:43:19;;;;;;;;;;;7.90;99.90;;;;;;5034211;28;20400;-75
2022/06/02 02:45:47;;;;;;;;;;;7.90;99.90;;;;;;5034625;28;19928;-75
2022/06/02 02:48:31;;;;;;;;;;;7.90;99.90;;;;;;5033099;28;19925;-74
2022/06/02 02:50:56;;;;;;;;;;;7.90;99.90;;;;;;5034318;28;19921;-74
2022/06/02 02:53:30;;;;;;;;;;;8.00;99.90;;;;;;5034592;28;19925;-75
2022/06/02 02:56:31;;;;;;;;;;;8.00;99.90;;;;;;5032843;28;19921;-74
2022/06/02 02:59:10;;;;;;;;;;;7.90;99.90;;;;;;5014944;28;19921;-75
2022/06/02 03:01:51;;;;;;;;;;;7.90;99.90;;;;;;5034718;28;19921;-75
2022/06/02 03:04:52;;;;;;;;;;;8.00;99.90;;;;;;5036699;28;20365;-77
2022/06/02 03:07:17;;;;;;;;;;;8.00;99.90;;;;;;5036363;28;20013;-71
2022/06/02 03:09:46;;;;;;;;;;;7.90;99.90;;;;;;5052252;28;19964;-73
2022/06/02 03:12:16;;;;;;;;;;;7.90;99.90;;;;;;5052724;28;19928;-75
2022/06/02 03:14:42;;;;;;;;;;;7.90;99.90;;;;;;5033977;28;20289;-76
2022/06/02 03:17:22;;;;;;;;;;;7.90;99.90;;;;;;5033693;28;19921;-76
2022/06/02 03:20:08;;;;;;;;;;;7.90;99.90;;;;;;5033960;28;19947;-76
2022/06/02 03:22:48;;;;;;;;;;;7.90;99.90;;;;;;5034055;28;19921;-76
2022/06/02 03:25:17;;;;;;;;;;;7.80;99.90;;;;;;5032549;28;20296;-76
2022/06/02 03:27:45;;;;;;;;;;;7.80;99.90;;;;;;5032744;28;19976;-75
2022/06/02 03:30:17;;;;;;;;;;;7.80;99.90;;;;;;5033501;28;19921;-76
2022/06/02 03:32:48;;;;;;;;;;;7.80;99.90;;;;;;5033940;28;19925;-76
2022/06/02 03:35:21;;;;;;;;;;;7.80;99.90;;;;;;5033608;28;19990;-75
2022/06/02 03:37:46;;;;;;;;;;;7.80;99.90;;;;;;5032515;28;20302;-76
2022/06/02 03:40:31;;;;;;;;;;;7.70;99.90;;;;;;5033196;28;19925;-76
2022/06/02 03:43:12;;;;;;;;;;;7.80;99.90;;;;;;5033727;28;19921;-76
2022/06/02 03:45:44;;;;;;;;;;;7.80;99.90;;;;;;5032431;28;19921;-76
2022/06/02 03:48:36;;;;;;;;;;;7.70;99.90;;;;;;5033363;28;19990;-76
2022/06/02 03:51:01;;;;;;;;;;;7.80;99.90;;;;;;5031646;28;19928;-77
2022/06/02 03:53:46;;;;;;;;;;;7.80;99.90;;;;;;5033555;28;19921;-75
2022/06/02 03:56:11;;;;;;;;;;;7.80;99.90;;;;;;5033067;28;19928;-76
2022/06/02 03:58:49;;;;;;;;;;;7.80;99.90;;;;;;5033413;28;19921;-76
2022/06/02 04:01:18;;;;;;;;;;;7.80;99.90;;;;;;5032148;28;19921;-76
2022/06/02 04:03:47;;;;;;;;;;;7.80;99.90;;;;;;5033438;28;19921;-76
2022/06/02 04:06:16;;;;;;;;;;;7.80;99.90;;;;;;5033188;28;20349;-76
2022/06/02 04:08:41;;;;;;;;;;;7.80;99.90;;;;;;5031834;28;19921;-76
2022/06/02 04:11:07;;;;;;;;;;;7.90;99.90;;;;;;5032954;28;19924;-76
2022/06/02 04:13:38;;;;;;;;;;;7.80;99.90;;;;;;5033293;28;20365;-76
2022/06/02 04:16:22;;;;;;;;;;;7.90;99.90;;;;;;5032965;28;19979;-77
2022/06/02 04:18:50;;;;;;;;;;;7.90;99.90;;;;;;5033182;28;19920;-76
2022/06/02 04:21:19;;;;;;;;;;;7.90;99.90;;;;;;5032789;28;19921;-76
2022/06/02 04:24:04;;;;;;;;;;;7.90;99.90;;;;;;5033271;28;20300;-76
2022/06/02 04:26:41;;;;;;;;;;;7.90;99.90;;;;;;5033036;28;19925;-76
2022/06/02 04:29:18;;;;;;;;;;;8.00;99.90;;;;;;5032687;28;19925;-76
2022/06/02 04:31:44;;;;;;;;;;;8.00;99.90;;;;;;5033229;28;19921;-76
2022/06/02 04:34:28;;;;;;;;;;;8.10;99.90;;;;;;5035046;28;19928;-76
2022/06/02 04:37:12;;;;;;;;;;;8.10;99.90;;;;;;5037312;28;19928;-75
2022/06/02 04:39:37;;;;;;;;;;;8.10;99.90;;;;;;5057438;28;19928;-80
2022/06/02 04:42:05;;;;;;;;;;;8.10;99.90;;;;;;5057216;28;19960;-76
2022/06/02 04:44:47;;;;;;;;;;;8.10;99.90;;;;;;5048710;28;19943;-76
2022/06/02 04:47:25;;;;;;;;;;;8.10;99.90;;;;;;5031847;28;19932;-76
2022/06/02 04:49:59;;;;;;;;;;;8.20;99.90;;;;;;5033324;28;20067;-77
2022/06/02 04:52:31;;;;;;;;;;;8.20;99.90;;;;;;5031702;28;19921;-78
2022/06/02 04:55:09;;;;;;;;;;;8.20;99.90;;;;;;5032378;28;19929;-78
2022/06/02 04:57:53;;;;;;;;;;;8.30;99.90;;;;;;5032068;28;19921;-79
2022/06/02 05:00:21;;;;;;;;;;;8.30;99.90;;;;;;5031744;28;19921;-79
2022/06/02 05:03:01;;;;;;;;;;;8.30;99.90;;;;;;5031900;28;19928;-78
2022/06/02 05:05:35;;;;;;;;;;;8.40;99.90;;;;;;5031770;28;20050;-78
2022/06/02 05:08:19;;;;;;;;;;;8.40;99.90;;;;;;5032155;28;19928;-77
2022/06/02 05:10:51;;;;;;;;;;;8.50;99.90;;;;;;5033001;28;19969;-79
2022/06/02 05:13:35;;;;;;;;;;;8.50;99.90;;;;;;5032569;28;19928;-79
2022/06/02 05:16:19;;;;;;;;;;;8.50;99.90;;;;;;5033021;28;20019;-78
2022/06/02 05:18:47;;;;;;;;;;;8.60;99.90;;;;;;5032862;28;19921;-78
2022/06/02 05:21:25;;;;;;;;;;;8.60;99.90;;;;;;5036286;28;19963;-80
2022/06/02 05:24:09;;;;;;;;;;;8.70;99.90;;;;;;5018977;28;19921;-79
2022/06/02 05:26:35;;;;;;;;;;;8.70;99.90;;;;;;5035408;28;20371;-78
2022/06/02 05:29:06;;;;;;;;;;;8.70;99.90;;;;;;5036163;28;19964;-78
2022/06/02 05:31:48;;;;;;;;;;;8.70;99.90;;;;;;5035124;28;19921;-79
2022/06/02 05:34:32;;;;;;;;;;;8.70;99.90;;;;;;5035027;28;19921;-79
2022/06/02 05:37:00;;;;;;;;;;;8.80;99.90;;;;;;5036214;28;19928;-79
2022/06/02 05:39:46;;;;;;;;;;;8.80;99.90;;;;;;5036352;28;19921;-83
2022/06/02 05:42:19;;;;;;;;;;;8.90;99.90;;;;;;5035288;28;19925;-76
2022/06/02 05:44:47;;;;;;;;;;;8.90;99.90;;;;;;5035049;28;19928;-79
2022/06/02 05:47:22;;;;;;;;;;;9.00;99.90;;;;;;5036289;28;19968;-80
2022/06/02 05:49:56;;;;;;;;;;;9.10;99.90;;;;;;5035947;28;19925;-81
2022/06/02 05:52:27;;;;;;;;;;;9.10;99.90;;;;;;5035868;28;20351;-79
2022/06/02 05:55:08;;;;;;;;;;;9.20;99.90;;;;;;5035993;28;20023;-78
2022/06/02 05:57:37;;;;;;;;;;;9.20;99.90;;;;;;5034477;28;19943;-77
2022/06/02 06:00:06;;;;;;;;;;;9.30;99.90;;;;;;5018450;28;20022;-81
2022/06/02 06:02:50;;;;;;;;;;;9.30;99.90;;;;;;5036465;28;19959;-80
2022/06/02 06:05:27;;;;;;;;;;;9.40;99.90;;;;;;5058192;28;19921;-81
2022/06/02 06:08:05;;;;;;;;;;;9.50;99.90;;;;;;5054271;28;19984;-80
2022/06/02 06:10:37;;;;;;;;;;;9.50;99.90;;;;;;5040549;28;19912;-81
2022/06/02 06:13:11;;;;;;;;;;;9.60;99.90;;;;;;5060298;28;19913;-81
2022/06/02 06:15:39;;;;;;;;;;;9.70;99.90;;;;;;5059750;28;19991;-79
2022/06/02 06:18:04;;;;;;;;;;;9.70;99.90;;;;;;5055208;28;19989;-80
2022/06/02 06:20:42;;;;;;;;;;;9.80;99.90;;;;;;5039071;28;20015;-80
2022/06/02 06:23:10;;;;;;;;;;;9.90;99.90;;;;;;5038757;28;19921;-81
2022/06/02 06:25:48;;;;;;;;;;;10.00;99.90;;;;;;5020252;28;20276;-88
2022/06/02 06:28:14;;;;;;;;;;;10.10;99.90;;;;;;5021111;28;19975;-74
2022/06/02 06:30:40;;;;;;;;;;;10.10;99.90;;;;;;5036159;28;19944;-76
2022/06/02 06:33:16;;;;;;;;;;;10.30;99.90;;;;;;5036560;28;20365;-76
2022/06/02 06:35:45;;;;;;;;;;;10.30;99.90;;;;;;5034724;28;19925;-76
2022/06/02 06:38:19;;;;;;;;;;;10.40;99.90;;;;;;5035019;28;19982;-75
2022/06/02 06:40:46;;;;;;;;;;;10.50;99.90;;;;;;5035446;28;19924;-76
2022/06/02 06:43:18;;;;;;;;;;;10.50;99.90;;;;;;5034092;28;20439;-75
2022/06/02 06:45:56;;;;;;;;;;;10.60;99.90;;;;;;5035017;28;20008;-76
2022/06/02 06:48:30;;;;;;;;;;;10.80;99.90;;;;;;5035181;28;19921;-75
2022/06/02 06:50:58;;;;;;;;;;;10.90;99.90;;;;;;5017575;28;19921;-76
2022/06/02 06:53:44;;;;;;;;;;;11.00;99.90;;;;;;5034959;28;19991;-76
2022/06/02 06:56:10;;;;;;;;;;;11.10;99.90;;;;;;5034716;28;19925;-76
2022/06/02 06:59:03;;;;;;;;;;;11.20;99.90;;;;;;5034626;28;20371;-77
2022/06/02 07:01:42;;;;;;;;;;;11.30;99.90;;;;;;5026292;28;19921;-85
2022/06/02 07:04:17;;;;;;;;;;;11.50;99.90;;;;;;5033597;28;19971;-76
2022/06/02 07:06:57;;;;;;;;;;;11.70;99.90;;;;;;5034257;28;19928;-76
2022/06/02 07:09:32;;;;;;;;;;;11.90;99.90;;;;;;5034653;28;19987;-75
2022/06/02 07:14:56;;;;;;;;;;;12.30;99.90;;;;;;5033156;28;20009;-76
2022/06/02 07:17:40;;;;;;;;;;;12.50;99.90;;;;;;5033125;28;19920;-76
2022/06/02 07:20:15;;;;;;;;;;;12.60;99.90;;;;;;5034386;28;19927;-76
2022/06/02 07:22:45;;;;;;;;;;;12.70;99.90;;;;;;5033850;28;20266;-76
2022/06/02 07:25:29;;;;;;;;;;;12.90;99.90;;;;;;5034451;28;20395;-76
2022/06/02 07:28:12;;;;;;;;;;;13.10;99.90;;;;;;5033806;28;20020;-76
2022/06/02 07:30:47;;;;;;;;;;;13.40;99.90;;;;;;5033471;28;19921;-76
2022/06/02 07:33:22;;;;;;;;;;;13.60;99.90;;;;;;5034184;28;20400;-76
2022/06/02 07:35:53;;;;;;;;;;;13.80;99.90;;;;;;5033689;28;20003;-76
2022/06/02 07:38:19;;;;;;;;;;;13.80;99.90;;;;;;5051068;28;19968;-77
2022/06/02 07:40:55;;;;;;;;;;;13.80;99.90;;;;;;5052159;28;19921;-77
2022/06/02 07:43:40;;;;;;;;;;;13.90;99.90;;;;;;5048626;28;19915;-77
2022/06/02 07:46:11;;;;;;;;;;;14.00;99.90;;;;;;5057953;28;19975;-77
2022/06/02 07:48:57;;;;;;;;;;;14.10;99.90;;;;;;5057453;28;19921;-79
2022/06/02 07:51:24;;;;;;;;;;;14.20;99.90;;;;;;5051631;28;20483;-74
2022/06/02 07:54:01;;;;;;;;;;;14.20;99.90;;;;;;5033626;28;19976;-76
2022/06/02 07:56:32;;;;;;;;;;;14.30;99.90;;;;;;5032752;28;19979;-76
2022/06/02 07:59:17;;;;;;;;;;;14.40;99.90;;;;;;5032175;28;19928;-76
2022/06/02 08:01:45;;;;;;;;;;;14.40;99.90;;;;;;5035178;28;19925;-79
2022/06/02 08:04:12;;;;;;;;;;;14.50;99.90;;;;;;5033131;28;19947;-76
2022/06/02 08:06:50;;;;;;;;;;;14.70;99.90;;;;;;5033485;28;20333;-77
2022/06/02 08:09:27;;;;;;;;;;;14.80;99.90;;;;;;5033460;28;19921;-76
2022/06/02 08:11:58;;;;;;;;;;;15.00;99.90;;;;;;5032977;28;19932;-76
2022/06/02 08:14:30;;;;;;;;;;;15.10;99.90;;;;;;5033632;28;20335;-76
2022/06/02 08:16:55;;;;;;;;;;;15.10;99.90;;;;;;5032908;28;19978;-76
2022/06/02 08:19:40;;;;;;;;;;;15.20;99.90;;;;;;5033450;28;20320;-77
2022/06/02 08:22:06;;;;;;;;;;;15.20;99.90;;;;;;5033059;28;19971;-76
2022/06/02 08:24:50;;;;;;;;;;;15.40;99.90;;;;;;5032308;28;19924;-76
2022/06/02 08:27:35;;;;;;;;;;;15.50;99.90;;;;;;5033407;28;19921;-76
2022/06/02 08:30:05;;;;;;;;;;;15.50;99.90;;;;;;5032727;28;19925;-76
2022/06/02 08:32:34;;;;;;;;;;;15.30;99.50;;;;;;5032351;28;19970;-76
2022/06/02 08:35:04;;;;;;;;;;;15.10;99.90;;;;;;5033119;28;19952;-76
2022/06/02 08:37:29;;;;;;;;;;;14.90;99.90;;;;;;5033474;28;19921;-76
2022/06/02 08:40:07;;;;;;;;;;;14.80;99.30;;;;;;5033208;28;20384;-78
2022/06/02 08:42:54;;;;;;;;;;;14.80;99.60;;;;;;5033448;28;19922;-76
2022/06/02 08:45:28;;;;;;;;;;;14.70;99.40;;;;;;5029069;28;19921;-76
2022/06/02 08:48:10;;;;;;;;;;;14.60;99.90;;;;;;5032978;28;19966;-77
2022/06/02 08:50:43;;;;;;;;;;;14.70;99.90;;;;;;5016303;28;19975;-78
2022/06/02 08:53:28;;;;;;;;;;;14.80;99.90;;;;;;5016896;28;19951;-78
2022/06/02 08:55:59;;;;;;;;;;;15.00;99.90;;;;;;5036732;28;19921;-79
2022/06/02 08:58:31;;;;;;;;;;;15.20;99.80;;;;;;5036973;28;19921;-78
2022/06/02 09:01:12;;;;;;;;;;;15.30;99.90;;;;;;5035807;28;20257;-78
2022/06/02 09:03:38;;;;;;;;;;;15.30;99.40;;;;;;5035544;28;19928;-79
2022/06/02 09:06:23;;;;;;;;;;;15.20;99.70;;;;;;5036689;28;19920;-80
2022/06/02 09:08:59;;;;;;;;;;;15.10;99.80;;;;;;5035815;28;20016;-77
2022/06/02 09:11:27;;;;;;;;;;;15.20;99.60;;;;;;5043444;28;19951;-76
2022/06/02 09:13:56;;;;;;;;;;;15.30;99.30;;;;;;5052501;28;19928;-77
2022/06/02 09:16:22;;;;;;;;;;;15.40;99.60;;;;;;5058697;28;19931;-77
2022/06/02 09:19:03;;;;;;;;;;;15.60;99.10;;;;;;5057720;28;19944;-80
2022/06/02 09:21:34;;;;;;;;;;;15.80;98.50;;;;;;5056074;28;19944;-77
2022/06/02 09:24:12;;;;;;;;;;;16.00;98.90;;;;;;5060436;28;20584;-77
2022/06/02 09:26:46;;;;;;;;;;;16.10;98.50;;;;;;5060324;28;19905;-74
2022/06/02 09:29:22;;;;;;;;;;;16.20;98.70;;;;;;5050126;28;19983;-78
2022/06/02 09:31:55;;;;;;;;;;;16.30;98.50;;;;;;5036726;28;19921;-77
2022/06/02 09:34:39;;;;;;;;;;;16.30;98.90;;;;;;5035420;28;19921;-77
2022/06/02 09:37:12;;;;;;;;;;;16.30;98.20;;;;;;5035937;28;20496;-77
2022/06/02 09:39:46;;;;;;;;;;;16.20;98.10;;;;;;5035158;28;19920;-76
2022/06/02 09:42:30;;;;;;;;;;;16.20;97.30;;;;;;5036052;28;19994;-76
2022/06/02 09:45:13;;;;;;;;;;;16.20;98.30;;;;;;5035714;28;20277;-77
2022/06/02 09:47:46;;;;;;;;;;;16.20;98.00;;;;;;5036024;28;19921;-77
2022/06/02 09:50:16;;;;;;;;;;;16.20;97.50;;;;;;5034521;28;19936;-77
2022/06/02 09:53:01;;;;;;;;;;;16.40;98.30;;;;;;5034740;28;19925;-77
2022/06/02 09:55:38;;;;;;;;;;;16.60;97.50;;;;;;5036042;28;19927;-77
2022/06/02 09:58:22;;;;;;;;;;;16.70;97.70;;;;;;5035550;28;19921;-78
2022/06/02 10:00:48;;;;;;;;;;;16.90;98.40;;;;;;5034609;28;19928;-77
2022/06/02 10:03:22;;;;;;;;;;;16.90;95.20;;;;;;5035471;28;19974;-77
2022/06/02 10:05:48;;;;;;;;;;;16.90;96.20;;;;;;5035288;28;20312;-77
2022/06/02 10:08:13;;;;;;;;;;;16.80;94.70;;;;;;5034156;28;19940;-77
2022/06/02 10:11:00;;;;;;;;;;;16.70;95.00;;;;;;5035535;28;19947;-77
2022/06/02 10:13:44;;;;;;;;;;;16.70;94.50;;;;;;5036042;28;19972;-77
2022/06/02 10:16:25;;;;;;;;;;;16.80;95.90;;;;;;5035578;28;19921;-77
2022/06/02 10:19:07;;;;;;;;;;;16.90;96.70;;;;;;5035303;28;20460;-77
2022/06/02 10:21:59;;;;;;;;;;;16.90;95.10;;;;;;5034281;28;19921;-78
2022/06/02 10:24:44;;;;;;;;;;;16.90;95.90;;;;;;5026637;28;19927;-77
2022/06/02 10:27:15;;;;;;;;;;;16.90;95.90;;;;;;5035002;28;19975;-77
2022/06/02 10:29:43;;;;;;;;;;;16.90;95.80;;;;;;5035315;28;19921;-77
2022/06/02 10:32:28;;;;;;;;;;;17.00;95.30;;;;;;5034980;28;19920;-77
2022/06/02 10:35:33;;;;;;;;;;;17.00;96.40;;;;;;5034148;28;19921;-77
2022/06/02 10:38:05;;;;;;;;;;;17.00;95.60;;;;;;5012530;28;19922;-80
2022/06/02 10:40:49;;;;;;;;;;;17.10;96.10;;;;;;5013195;28;19921;-77
2022/06/02 10:43:14;;;;;;;;;;;17.10;94.60;;;;;;5026392;28;19955;-77
2022/06/02 10:45:56;;;;;;;;;;;17.20;95.30;;;;;;5033987;28;19925;-77
2022/06/02 10:48:21;;;;;;;;;;;17.20;94.40;;;;;;5017353;28;19932;-77
2022/06/02 10:51:06;;;;;;;;;;;17.20;95.10;;;;;;5034963;28;19921;-77
2022/06/02 10:53:51;;;;;;;;;;;17.30;95.00;;;;;;5034108;28;19921;-78
2022/06/02 10:56:23;;;;;;;;;;;17.30;95.60;;;;;;5039068;28;19979;-77
2022/06/02 10:59:08;;;;;;;;;;;17.30;93.70;;;;;;5046480;28;19959;-77
2022/06/02 11:01:41;;;;;;;;;;;17.40;93.70;;;;;;5043860;28;20372;-78
2022/06/02 11:04:25;;;;;;;;;;;17.50;94.30;;;;;;5052015;28;19929;-77
2022/06/02 11:07:10;;;;;;;;;;;17.60;93.20;;;;;;5058986;28;19919;-77
2022/06/02 11:09:54;;;;;;;;;;;17.80;94.50;;;;;;5058935;28;19936;-78
2022/06/02 11:12:34;;;;;;;;;;;17.90;93.90;;;;;;5054874;28;19989;-76
2022/06/02 11:15:18;;;;;;;;;;;18.10;94.10;;;;;;5035058;28;19928;-77
2022/06/02 11:18:06;;;;;;;;;;;18.20;93.70;;;;;;5034427;28;19921;-77
2022/06/02 11:20:44;;;;;;;;;;;18.20;93.50;;;;;;5034008;28;20405;-77
2022/06/02 11:23:28;;;;;;;;;;;18.20;92.90;;;;;;5034559;28;20372;-77
2022/06/02 11:26:06;;;;;;;;;;;18.10;93.10;;;;;;5033034;28;20514;-77
2022/06/02 11:28:49;;;;;;;;;;;18.00;93.00;;;;;;5033699;28;19964;-77
2022/06/02 11:31:24;;;;;;;;;;;17.80;93.50;;;;;;5033006;28;20404;-78
2022/06/02 11:33:58;;;;;;;;;;;17.70;93.10;;;;;;5033270;28;20321;-76
2022/06/02 11:36:37;;;;;;;;;;;17.60;92.80;;;;;;5032833;28;20002;-77
2022/06/02 11:39:21;;;;;;;;;;;17.50;93.80;;;;;;5034282;28;19929;-77
2022/06/02 11:41:56;;;;;;;;;;;17.50;94.00;;;;;;5033066;28;19992;-77
2022/06/02 11:44:41;;;;;;;;;;;17.30;92.50;;;;;;5032635;28;19925;-77
2022/06/02 11:47:12;;;;;;;;;;;17.30;93.80;;;;;;5034004;28;19928;-77
2022/06/02 11:49:53;;;;;;;;;;;17.20;94.30;;;;;;5033897;28;19975;-77
2022/06/02 11:52:37;;;;;;;;;;;17.20;94.70;;;;;;5033504;28;19921;-77
2022/06/02 11:55:21;;;;;;;;;;;17.10;93.50;;;;;;5032712;28;20357;-77
2022/06/02 11:57:57;;;;;;;;;;;17.10;94.40;;;;;;5033695;28;19925;-77
2022/06/02 12:00:44;;;;;;;;;;;17.10;93.80;;;;;;5032284;28;19921;-77
2022/06/02 12:03:29;;;;;;;;;;;17.30;94.00;;;;;;5032188;28;20018;-80
2022/06/02 12:06:06;;;;;;;;;;;17.50;93.30;;;;;;5032516;28;19921;-75
2022/06/02 12:08:35;;;;;;;;;;;17.60;93.50;;;;;;5033329;28;19932;-78
2022/06/02 12:11:19;;;;;;;;;;;17.70;91.40;;;;;;5033695;28;19968;-78
2022/06/02 12:14:06;;;;;;;;;;;17.80;91.40;;;;;;5033492;28;19921;-77
2022/06/02 12:16:50;;;;;;;;;;;17.80;92.30;;;;;;5033185;28;20630;-77
2022/06/02 12:19:15;;;;;;;;;;;17.70;91.60;;;;;;5033230;28;19991;-77
2022/06/02 12:21:43;;;;;;;;;;;17.60;91.60;;;;;;5033569;28;19921;-77
2022/06/02 12:24:13;;;;;;;;;;;17.40;91.30;;;;;;5033470;28;19971;-77
2022/06/02 12:26:57;;;;;;;;;;;17.40;92.30;;;;;;5032209;28;19921;-77
2022/06/02 12:29:42;;;;;;;;;;;17.30;92.10;;;;;;5035794;28;19921;-77
2022/06/02 12:32:14;;;;;;;;;;;17.20;92.70;;;;;;5037712;28;20281;-76
2022/06/02 12:34:46;;;;;;;;;;;17.30;94.70;;;;;;5036217;28;19943;-77
2022/06/02 12:37:30;;;;;;;;;;;17.50;93.90;;;;;;5036945;28;19932;-77
2022/06/02 12:39:55;;;;;;;;;;;17.80;93.30;;;;;;5037112;28;20020;-77
2022/06/02 12:42:27;;;;;;;;;;;17.90;92.80;;;;;;5036763;28;20020;-76
2022/06/02 12:44:53;;;;;;;;;;;18.00;91.50;;;;;;5037160;28;20261;-77
2022/06/02 12:47:19;;;;;;;;;;;18.10;91.40;;;;;;5036786;28;19975;-77
2022/06/02 12:49:59;;;;;;;;;;;18.20;91.40;;;;;;5036104;28;20379;-76
2022/06/02 12:52:25;;;;;;;;;;;18.30;88.90;;;;;;5035700;28;19921;-76
2022/06/02 12:54:50;;;;;;;;;;;18.50;91.00;;;;;;5037813;28;20280;-74
2022/06/02 12:57:23;;;;;;;;;;;18.60;92.40;;;;;;5039051;28;20341;-74
2022/06/02 13:00:08;;;;;;;;;;;18.90;92.00;;;;;;5045161;28;19905;-78
2022/06/02 13:02:33;;;;;;;;;;;19.00;90.50;;;;;;5060530;28;19905;-77
2022/06/02 13:04:59;;;;;;;;;;;19.20;88.00;;;;;;5050729;28;19921;-76
2022/06/02 13:07:45;;;;;;;;;;;19.20;86.60;;;;;;5037128;28;19921;-77
2022/06/02 13:10:29;;;;;;;;;;;19.20;84.00;;;;;;5037214;28;19927;-76
2022/06/02 13:13:07;;;;;;;;;;;19.00;86.30;;;;;;5037161;28;19921;-77
2022/06/02 13:15:52;;;;;;;;;;;18.80;84.90;;;;;;5036388;28;19928;-77
2022/06/02 13:18:29;;;;;;;;;;;18.70;82.90;;;;;;5036875;28;20039;-77
2022/06/02 13:21:14;;;;;;;;;;;18.50;86.10;;;;;;5036495;28;20016;-77
2022/06/02 13:23:39;;;;;;;;;;;18.30;87.30;;;;;;5036240;28;19921;-77
2022/06/02 13:26:12;;;;;;;;;;;18.30;89.50;;;;;;5036550;28;20361;-77
2022/06/02 13:28:58;;;;;;;;;;;18.30;88.80;;;;;;5034932;28;19978;-77
2022/06/02 13:31:43;;;;;;;;;;;18.30;91.20;;;;;;5035678;28;19921;-77
2022/06/02 13:34:10;;;;;;;;;;;18.50;87.40;;;;;;5036367;28;19928;-77
2022/06/02 13:36:42;;;;;;;;;;;18.60;88.90;;;;;;5036138;28;19921;-77
2022/06/02 13:39:10;;;;;;;;;;;18.60;86.90;;;;;;5035048;28;19927;-77
2022/06/02 13:41:39;;;;;;;;;;;18.50;87.10;;;;;;5035120;28;19921;-77
2022/06/02 13:44:17;;;;;;;;;;;18.40;88.90;;;;;;5036283;28;19927;-77
2022/06/02 13:47:01;;;;;;;;;;;18.30;88.30;;;;;;5034351;28;20373;-77
2022/06/02 13:49:30;;;;;;;;;;;18.20;89.00;;;;;;5035576;28;19921;-77
2022/06/02 13:52:14;;;;;;;;;;;18.10;88.90;;;;;;5035943;28;19921;-78
2022/06/02 13:57:44;;;;;;;;;;;18.20;90.00;;;;;;5035579;28;20015;-77
2022/06/02 14:00:11;;;;;;;;;;;18.30;89.90;;;;;;5035894;28;19951;-82
2022/06/02 14:02:52;;;;;;;;;;;18.30;87.10;;;;;;5034484;28;19925;-78
2022/06/02 14:05:21;;;;;;;;;;;18.20;87.00;;;;;;5035782;28;19928;-77
2022/06/02 14:07:50;;;;;;;;;;;18.10;87.00;;;;;;5034200;28;19971;-77
2022/06/02 14:10:15;;;;;;;;;;;18.00;87.60;;;;;;5035647;28;19921;-78
2022/06/02 14:12:49;;;;;;;;;;;17.90;88.20;;;;;;5035468;28;19994;-77
2022/06/02 14:15:17;;;;;;;;;;;17.80;87.90;;;;;;5034407;28;20405;-77
2022/06/02 14:18:03;;;;;;;;;;;17.70;89.00;;;;;;5033835;28;19921;-77
2022/06/02 14:20:34;;;;;;;;;;;17.60;87.50;;;;;;5034325;28;19921;-77
2022/06/02 14:23:19;;;;;;;;;;;17.60;90.20;;;;;;5034393;28;19968;-77
2022/06/02 14:25:44;;;;;;;;;;;17.60;88.00;;;;;;5034991;28;20312;-77
2022/06/02 14:28:22;;;;;;;;;;;17.60;88.10;;;;;;5035284;28;19935;-77
2022/06/02 14:30:50;;;;;;;;;;;17.70;87.60;;;;;;5017032;28;20396;-77
2022/06/02 14:33:25;;;;;;;;;;;17.70;88.00;;;;;;5034235;28;20414;-77
2022/06/02 14:36:00;;;;;;;;;;;17.70;87.90;;;;;;5034807;28;20003;-77
2022/06/02 14:38:37;;;;;;;;;;;17.90;88.40;;;;;;5035020;28;20038;-77
2022/06/02 14:41:10;;;;;;;;;;;17.90;88.20;;;;;;5035126;28;20289;-77
2022/06/02 14:43:42;;;;;;;;;;;17.90;87.90;;;;;;5033677;28;19928;-77
2022/06/02 14:46:16;;;;;;;;;;;17.80;86.20;;;;;;5035099;28;19920;-77
2022/06/02 14:48:52;;;;;;;;;;;17.70;87.60;;;;;;5034735;28;19932;-78
2022/06/02 14:51:18;;;;;;;;;;;17.80;89.40;;;;;;5033450;28;19928;-77
2022/06/02 14:54:03;;;;;;;;;;;17.90;87.50;;;;;;5035730;28;19924;-77
2022/06/02 14:56:41;;;;;;;;;;;17.90;87.90;;;;;;5057354;28;19964;-76
2022/06/02 14:59:14;;;;;;;;;;;18.00;89.80;;;;;;5038644;28;19921;-77
2022/06/02 15:01:57;;;;;;;;;;;18.10;89.70;;;;;;5052764;28;19921;-77
2022/06/02 15:04:22;;;;;;;;;;;18.20;86.50;;;;;;5056248;28;19970;-77
2022/06/02 15:06:48;;;;;;;;;;;18.20;86.40;;;;;;5058767;28;19904;-78
2022/06/02 15:09:32;;;;;;;;;;;18.30;86.70;;;;;;5059035;28;19912;-77
2022/06/02 15:12:08;;;;;;;;;;;18.40;87.30;;;;;;5057509;28;19921;-77
2022/06/02 15:14:39;;;;;;;;;;;18.50;87.00;;;;;;5017902;28;20004;-78
2022/06/02 15:17:16;;;;;;;;;;;18.60;84.60;;;;;;5034592;28;20304;-77
2022/06/02 15:19:48;;;;;;;;;;;18.60;83.60;;;;;;5033361;28;19925;-77